Decoded Metar for KGPH ( in ) (IATA:) | Meteo·Mobile Aviation Weather
aviador You're here:

KGPH Decoded Metar

in
Report Time2018-10-18 00:35:00
UTC Time2018-10-18 00:51:43
Flight Rules vfr VFR
WindCalm
Visibility9999 m
Phenomena:N/A
Clouds:N/A
Expected CloudBase > 2,800 ft AGL from Temp-Dew spread
CeilingNone
Temp12°C
Dew Point05°C (63% RH)
AAT10.9°C
QNH1032 hPa
Raw Report
KGPH 180035Z AUTO 00000KT 10SM CLR 12/05 A3047 RMK AO2=

Extra information for KGPH:More info

Social comments